sensor_id;sensor_type;location;lat;lon;timestamp;P1;durP1;ratioP1;P2;durP2;ratioP2
54235;SDS011;40151;43.606;1.472;2023-08-24T00:01:30;3.80;;;2.85;;
54235;SDS011;40151;43.606;1.472;2023-08-24T00:03:55;3.40;;;2.58;;
54235;SDS011;40151;43.606;1.472;2023-08-24T00:06:21;4.13;;;2.60;;
54235;SDS011;40151;43.606;1.472;2023-08-24T00:08:46;4.10;;;2.95;;
54235;SDS011;40151;43.606;1.472;2023-08-24T00:11:12;3.90;;;2.67;;
54235;SDS011;40151;43.606;1.472;2023-08-24T00:13:42;3.58;;;2.70;;
54235;SDS011;40151;43.606;1.472;2023-08-24T00:16:13;4.72;;;2.65;;
54235;SDS011;40151;43.606;1.472;2023-08-24T00:18:40;5.25;;;2.85;;
54235;SDS011;40151;43.606;1.472;2023-08-24T00:21:05;4.50;;;3.00;;
54235;SDS011;40151;43.606;1.472;2023-08-24T00:23:32;3.60;;;2.70;;
54235;SDS011;40151;43.606;1.472;2023-08-24T00:25:58;3.95;;;2.90;;
54235;SDS011;40151;43.606;1.472;2023-08-24T00:28:25;4.32;;;2.90;;
54235;SDS011;40151;43.606;1.472;2023-08-24T00:30:50;4.38;;;3.15;;
54235;SDS011;40151;43.606;1.472;2023-08-24T00:33:16;4.35;;;2.60;;
54235;SDS011;40151;43.606;1.472;2023-08-24T00:35:41;3.33;;;2.63;;
54235;SDS011;40151;43.606;1.472;2023-08-24T00:38:07;4.32;;;2.90;;
54235;SDS011;40151;43.606;1.472;2023-08-24T00:40:32;4.93;;;2.83;;
54235;SDS011;40151;43.606;1.472;2023-08-24T00:42:57;4.45;;;2.92;;
54235;SDS011;40151;43.606;1.472;2023-08-24T00:45:23;4.15;;;2.83;;
54235;SDS011;40151;43.606;1.472;2023-08-24T00:47:48;3.67;;;2.95;;
54235;SDS011;40151;43.606;1.472;2023-08-24T00:50:15;4.40;;;2.90;;
54235;SDS011;40151;43.606;1.472;2023-08-24T00:52:42;4.15;;;2.92;;
54235;SDS011;40151;43.606;1.472;2023-08-24T00:55:08;3.50;;;2.58;;
54235;SDS011;40151;43.606;1.472;2023-08-24T00:57:33;4.00;;;2.72;;
54235;SDS011;40151;43.606;1.472;2023-08-24T01:00:02;3.90;;;2.88;;
54235;SDS011;40151;43.606;1.472;2023-08-24T01:02:36;4.10;;;2.80;;
54235;SDS011;40151;43.606;1.472;2023-08-24T01:05:02;4.57;;;3.20;;
54235;SDS011;40151;43.606;1.472;2023-08-24T01:07:30;3.58;;;2.60;;
54235;SDS011;40151;43.606;1.472;2023-08-24T01:09:56;4.05;;;2.92;;
54235;SDS011;40151;43.606;1.472;2023-08-24T01:12:30;4.28;;;3.00;;
54235;SDS011;40151;43.606;1.472;2023-08-24T01:15:14;4.07;;;2.97;;
54235;SDS011;40151;43.606;1.472;2023-08-24T01:17:46;5.13;;;3.35;;
54235;SDS011;40151;43.606;1.472;2023-08-24T01:20:12;4.38;;;3.25;;
54235;SDS011;40151;43.606;1.472;2023-08-24T01:22:54;4.57;;;3.22;;
54235;SDS011;40151;43.606;1.472;2023-08-24T01:27:53;4.68;;;3.25;;
54235;SDS011;40151;43.606;1.472;2023-08-24T01:30:20;5.18;;;3.30;;
54235;SDS011;40151;43.606;1.472;2023-08-24T01:32:46;5.38;;;3.95;;
54235;SDS011;40151;43.606;1.472;2023-08-24T01:35:11;4.47;;;3.50;;
54235;SDS011;40151;43.606;1.472;2023-08-24T01:37:36;4.47;;;3.30;;
54235;SDS011;40151;43.606;1.472;2023-08-24T01:40:23;5.43;;;3.90;;
54235;SDS011;40151;43.606;1.472;2023-08-24T01:43:02;5.30;;;3.25;;
54235;SDS011;40151;43.606;1.472;2023-08-24T01:45:31;4.57;;;3.35;;
54235;SDS011;40151;43.606;1.472;2023-08-24T01:47:59;4.43;;;3.28;;
54235;SDS011;40151;43.606;1.472;2023-08-24T01:50:28;4.75;;;3.53;;
54235;SDS011;40151;43.606;1.472;2023-08-24T01:52:54;4.78;;;3.45;;
54235;SDS011;40151;43.606;1.472;2023-08-24T01:55:20;4.07;;;3.00;;
54235;SDS011;40151;43.606;1.472;2023-08-24T01:57:46;4.97;;;3.05;;
54235;SDS011;40151;43.606;1.472;2023-08-24T02:00:12;6.35;;;3.20;;
54235;SDS011;40151;43.606;1.472;2023-08-24T02:02:38;4.05;;;3.30;;
54235;SDS011;40151;43.606;1.472;2023-08-24T02:05:03;5.28;;;3.35;;
54235;SDS011;40151;43.606;1.472;2023-08-24T02:07:29;4.30;;;3.45;;
54235;SDS011;40151;43.606;1.472;2023-08-24T02:09:54;4.55;;;3.25;;
54235;SDS011;40151;43.606;1.472;2023-08-24T02:12:20;4.70;;;3.50;;
54235;SDS011;40151;43.606;1.472;2023-08-24T02:14:45;4.85;;;3.50;;
54235;SDS011;40151;43.606;1.472;2023-08-24T02:17:11;4.32;;;3.20;;
54235;SDS011;40151;43.606;1.472;2023-08-24T02:19:36;5.38;;;3.65;;
54235;SDS011;40151;43.606;1.472;2023-08-24T02:22:02;4.55;;;3.47;;
54235;SDS011;40151;43.606;1.472;2023-08-24T02:24:27;4.40;;;3.17;;
54235;SDS011;40151;43.606;1.472;2023-08-24T02:26:53;5.25;;;3.33;;
54235;SDS011;40151;43.606;1.472;2023-08-24T02:29:18;5.13;;;3.65;;
54235;SDS011;40151;43.606;1.472;2023-08-24T02:31:43;4.63;;;3.40;;
54235;SDS011;40151;43.606;1.472;2023-08-24T02:34:09;4.03;;;3.15;;
54235;SDS011;40151;43.606;1.472;2023-08-24T02:36:35;4.53;;;3.35;;
54235;SDS011;40151;43.606;1.472;2023-08-24T02:39:00;4.75;;;3.25;;
54235;SDS011;40151;43.606;1.472;2023-08-24T02:41:26;4.20;;;3.05;;
54235;SDS011;40151;43.606;1.472;2023-08-24T02:43:52;5.43;;;3.78;;
54235;SDS011;40151;43.606;1.472;2023-08-24T02:46:18;5.25;;;3.75;;
54235;SDS011;40151;43.606;1.472;2023-08-24T02:48:44;5.60;;;3.45;;
54235;SDS011;40151;43.606;1.472;2023-08-24T02:51:09;4.80;;;3.58;;
54235;SDS011;40151;43.606;1.472;2023-08-24T02:53:35;5.47;;;3.22;;
54235;SDS011;40151;43.606;1.472;2023-08-24T02:56:01;5.88;;;3.88;;
54235;SDS011;40151;43.606;1.472;2023-08-24T02:58:27;5.47;;;3.63;;
54235;SDS011;40151;43.606;1.472;2023-08-24T03:00:53;6.65;;;4.18;;
54235;SDS011;40151;43.606;1.472;2023-08-24T03:03:19;4.47;;;3.50;;
54235;SDS011;40151;43.606;1.472;2023-08-24T03:08:23;5.03;;;3.53;;
54235;SDS011;40151;43.606;1.472;2023-08-24T03:10:48;5.15;;;3.75;;
54235;SDS011;40151;43.606;1.472;2023-08-24T03:13:14;5.35;;;3.88;;
54235;SDS011;40151;43.606;1.472;2023-08-24T03:15:39;4.68;;;3.88;;
54235;SDS011;40151;43.606;1.472;2023-08-24T03:18:05;5.07;;;4.05;;
54235;SDS011;40151;43.606;1.472;2023-08-24T03:20:30;5.95;;;4.20;;
54235;SDS011;40151;43.606;1.472;2023-08-24T03:22:56;6.55;;;4.07;;
54235;SDS011;40151;43.606;1.472;2023-08-24T03:25:22;4.57;;;3.90;;
54235;SDS011;40151;43.606;1.472;2023-08-24T03:27:48;4.40;;;3.58;;
54235;SDS011;40151;43.606;1.472;2023-08-24T03:30:13;5.32;;;3.75;;
54235;SDS011;40151;43.606;1.472;2023-08-24T03:32:42;5.80;;;3.95;;
54235;SDS011;40151;43.606;1.472;2023-08-24T03:35:07;6.13;;;4.40;;
54235;SDS011;40151;43.606;1.472;2023-08-24T03:37:33;5.90;;;4.10;;
54235;SDS011;40151;43.606;1.472;2023-08-24T03:39:58;5.53;;;4.10;;
54235;SDS011;40151;43.606;1.472;2023-08-24T03:42:24;5.05;;;4.07;;
54235;SDS011;40151;43.606;1.472;2023-08-24T03:44:49;4.90;;;4.20;;
54235;SDS011;40151;43.606;1.472;2023-08-24T03:47:15;6.13;;;4.38;;
54235;SDS011;40151;43.606;1.472;2023-08-24T03:49:43;5.30;;;4.22;;
54235;SDS011;40151;43.606;1.472;2023-08-24T03:52:09;4.50;;;3.75;;
54235;SDS011;40151;43.606;1.472;2023-08-24T03:54:35;5.38;;;4.15;;
54235;SDS011;40151;43.606;1.472;2023-08-24T03:57:01;7.45;;;4.20;;
54235;SDS011;40151;43.606;1.472;2023-08-24T03:59:26;5.50;;;3.80;;
54235;SDS011;40151;43.606;1.472;2023-08-24T04:01:52;5.65;;;4.00;;
54235;SDS011;40151;43.606;1.472;2023-08-24T04:04:17;5.10;;;3.80;;
54235;SDS011;40151;43.606;1.472;2023-08-24T04:06:43;4.75;;;3.65;;
54235;SDS011;40151;43.606;1.472;2023-08-24T04:09:08;6.72;;;4.18;;
54235;SDS011;40151;43.606;1.472;2023-08-24T04:11:34;5.28;;;3.95;;
54235;SDS011;40151;43.606;1.472;2023-08-24T04:13:59;5.15;;;4.50;;
54235;SDS011;40151;43.606;1.472;2023-08-24T04:16:25;6.15;;;4.50;;
54235;SDS011;40151;43.606;1.472;2023-08-24T04:18:50;6.18;;;4.25;;
54235;SDS011;40151;43.606;1.472;2023-08-24T04:21:16;6.65;;;4.32;;
54235;SDS011;40151;43.606;1.472;2023-08-24T04:23:41;5.68;;;3.97;;
54235;SDS011;40151;43.606;1.472;2023-08-24T04:26:10;5.38;;;4.05;;
54235;SDS011;40151;43.606;1.472;2023-08-24T04:28:36;6.07;;;4.13;;
54235;SDS011;40151;43.606;1.472;2023-08-24T04:31:02;5.82;;;4.43;;
54235;SDS011;40151;43.606;1.472;2023-08-24T04:33:28;6.55;;;4.43;;
54235;SDS011;40151;43.606;1.472;2023-08-24T04:35:53;6.55;;;4.13;;
54235;SDS011;40151;43.606;1.472;2023-08-24T04:38:19;6.63;;;4.60;;
54235;SDS011;40151;43.606;1.472;2023-08-24T04:40:48;5.53;;;4.30;;
54235;SDS011;40151;43.606;1.472;2023-08-24T04:43:16;6.38;;;4.00;;
54235;SDS011;40151;43.606;1.472;2023-08-24T04:45:42;5.75;;;4.15;;
54235;SDS011;40151;43.606;1.472;2023-08-24T04:48:10;5.82;;;3.97;;
54235;SDS011;40151;43.606;1.472;2023-08-24T04:50:35;5.38;;;4.55;;
54235;SDS011;40151;43.606;1.472;2023-08-24T04:53:01;6.22;;;4.82;;
54235;SDS011;40151;43.606;1.472;2023-08-24T04:55:26;7.05;;;4.35;;
54235;SDS011;40151;43.606;1.472;2023-08-24T04:57:52;5.45;;;4.18;;
54235;SDS011;40151;43.606;1.472;2023-08-24T05:00:17;6.78;;;4.50;;
54235;SDS011;40151;43.606;1.472;2023-08-24T05:02:43;5.25;;;4.13;;
54235;SDS011;40151;43.606;1.472;2023-08-24T05:05:09;5.95;;;4.50;;
54235;SDS011;40151;43.606;1.472;2023-08-24T05:07:39;6.38;;;4.45;;
54235;SDS011;40151;43.606;1.472;2023-08-24T05:10:06;5.70;;;4.60;;
54235;SDS011;40151;43.606;1.472;2023-08-24T05:12:32;5.72;;;3.85;;
54235;SDS011;40151;43.606;1.472;2023-08-24T05:14:59;6.28;;;4.30;;
54235;SDS011;40151;43.606;1.472;2023-08-24T05:17:24;6.72;;;4.80;;
54235;SDS011;40151;43.606;1.472;2023-08-24T05:19:53;5.82;;;4.43;;
54235;SDS011;40151;43.606;1.472;2023-08-24T05:22:19;5.85;;;4.10;;
54235;SDS011;40151;43.606;1.472;2023-08-24T05:24:44;5.93;;;4.53;;
54235;SDS011;40151;43.606;1.472;2023-08-24T05:27:10;5.70;;;4.28;;
54235;SDS011;40151;43.606;1.472;2023-08-24T05:29:35;6.05;;;4.25;;
54235;SDS011;40151;43.606;1.472;2023-08-24T05:32:01;6.10;;;4.07;;
54235;SDS011;40151;43.606;1.472;2023-08-24T05:34:28;5.90;;;4.55;;
54235;SDS011;40151;43.606;1.472;2023-08-24T05:36:53;6.30;;;4.50;;
54235;SDS011;40151;43.606;1.472;2023-08-24T05:39:19;6.30;;;4.65;;
54235;SDS011;40151;43.606;1.472;2023-08-24T05:41:44;5.70;;;4.00;;
54235;SDS011;40151;43.606;1.472;2023-08-24T05:44:09;5.57;;;4.38;;
54235;SDS011;40151;43.606;1.472;2023-08-24T05:46:35;6.57;;;4.72;;
54235;SDS011;40151;43.606;1.472;2023-08-24T05:49:00;7.28;;;4.88;;
54235;SDS011;40151;43.606;1.472;2023-08-24T05:51:26;6.60;;;4.63;;
54235;SDS011;40151;43.606;1.472;2023-08-24T05:53:51;5.00;;;3.85;;
54235;SDS011;40151;43.606;1.472;2023-08-24T05:56:23;6.20;;;4.57;;
54235;SDS011;40151;43.606;1.472;2023-08-24T05:58:49;5.95;;;4.60;;
54235;SDS011;40151;43.606;1.472;2023-08-24T06:01:14;5.97;;;4.57;;
54235;SDS011;40151;43.606;1.472;2023-08-24T06:03:39;6.07;;;4.60;;
54235;SDS011;40151;43.606;1.472;2023-08-24T06:06:05;6.90;;;4.22;;
54235;SDS011;40151;43.606;1.472;2023-08-24T06:08:31;6.15;;;4.20;;
54235;SDS011;40151;43.606;1.472;2023-08-24T06:10:57;6.57;;;4.30;;
54235;SDS011;40151;43.606;1.472;2023-08-24T06:13:23;6.43;;;4.63;;
54235;SDS011;40151;43.606;1.472;2023-08-24T06:15:49;4.97;;;3.95;;
54235;SDS011;40151;43.606;1.472;2023-08-24T06:18:14;5.88;;;4.63;;
54235;SDS011;40151;43.606;1.472;2023-08-24T06:20:40;5.03;;;3.88;;
54235;SDS011;40151;43.606;1.472;2023-08-24T06:23:06;6.43;;;4.00;;
54235;SDS011;40151;43.606;1.472;2023-08-24T06:25:32;5.35;;;4.15;;
54235;SDS011;40151;43.606;1.472;2023-08-24T06:27:58;5.93;;;4.60;;
54235;SDS011;40151;43.606;1.472;2023-08-24T06:30:24;6.20;;;4.38;;
54235;SDS011;40151;43.606;1.472;2023-08-24T06:32:50;5.38;;;4.20;;
54235;SDS011;40151;43.606;1.472;2023-08-24T06:35:16;5.40;;;4.32;;
54235;SDS011;40151;43.606;1.472;2023-08-24T06:37:42;5.05;;;4.13;;
54235;SDS011;40151;43.606;1.472;2023-08-24T06:40:08;5.15;;;4.18;;
54235;SDS011;40151;43.606;1.472;2023-08-24T06:42:34;6.20;;;4.38;;
54235;SDS011;40151;43.606;1.472;2023-08-24T06:44:59;5.97;;;4.55;;
54235;SDS011;40151;43.606;1.472;2023-08-24T06:47:24;5.95;;;4.18;;
54235;SDS011;40151;43.606;1.472;2023-08-24T06:49:50;5.68;;;4.10;;
54235;SDS011;40151;43.606;1.472;2023-08-24T06:52:16;5.82;;;4.40;;
54235;SDS011;40151;43.606;1.472;2023-08-24T06:54:41;6.13;;;4.03;;
54235;SDS011;40151;43.606;1.472;2023-08-24T06:57:07;5.55;;;4.30;;
54235;SDS011;40151;43.606;1.472;2023-08-24T06:59:32;5.22;;;4.20;;
54235;SDS011;40151;43.606;1.472;2023-08-24T07:01:57;4.97;;;3.97;;
54235;SDS011;40151;43.606;1.472;2023-08-24T07:04:23;5.47;;;4.13;;
54235;SDS011;40151;43.606;1.472;2023-08-24T07:06:48;5.25;;;4.15;;
54235;SDS011;40151;43.606;1.472;2023-08-24T07:09:14;4.63;;;4.03;;
54235;SDS011;40151;43.606;1.472;2023-08-24T07:11:40;5.18;;;3.90;;
54235;SDS011;40151;43.606;1.472;2023-08-24T07:14:05;4.72;;;4.05;;
54235;SDS011;40151;43.606;1.472;2023-08-24T07:16:31;4.97;;;3.80;;
54235;SDS011;40151;43.606;1.472;2023-08-24T07:18:56;4.63;;;3.95;;
54235;SDS011;40151;43.606;1.472;2023-08-24T07:21:22;5.10;;;4.03;;
54235;SDS011;40151;43.606;1.472;2023-08-24T07:23:47;5.40;;;4.38;;
54235;SDS011;40151;43.606;1.472;2023-08-24T07:26:13;5.57;;;4.45;;
54235;SDS011;40151;43.606;1.472;2023-08-24T07:28:38;5.63;;;4.15;;
54235;SDS011;40151;43.606;1.472;2023-08-24T07:31:10;6.60;;;4.28;;
54235;SDS011;40151;43.606;1.472;2023-08-24T07:33:36;4.85;;;4.13;;
54235;SDS011;40151;43.606;1.472;2023-08-24T07:36:05;4.82;;;4.10;;
54235;SDS011;40151;43.606;1.472;2023-08-24T07:38:31;5.53;;;4.45;;
54235;SDS011;40151;43.606;1.472;2023-08-24T07:40:57;5.78;;;4.00;;
54235;SDS011;40151;43.606;1.472;2023-08-24T07:43:23;5.25;;;4.28;;
54235;SDS011;40151;43.606;1.472;2023-08-24T07:45:49;4.80;;;3.88;;
54235;SDS011;40151;43.606;1.472;2023-08-24T07:48:15;5.63;;;4.38;;
54235;SDS011;40151;43.606;1.472;2023-08-24T07:50:40;4.78;;;4.18;;
54235;SDS011;40151;43.606;1.472;2023-08-24T07:53:06;5.45;;;4.25;;
54235;SDS011;40151;43.606;1.472;2023-08-24T07:55:31;4.35;;;3.63;;
54235;SDS011;40151;43.606;1.472;2023-08-24T07:57:57;6.60;;;4.05;;
54235;SDS011;40151;43.606;1.472;2023-08-24T08:00:22;5.70;;;4.43;;
54235;SDS011;40151;43.606;1.472;2023-08-24T08:02:49;4.80;;;3.85;;
54235;SDS011;40151;43.606;1.472;2023-08-24T08:05:16;5.88;;;4.30;;
54235;SDS011;40151;43.606;1.472;2023-08-24T08:07:41;5.55;;;4.65;;
54235;SDS011;40151;43.606;1.472;2023-08-24T08:10:07;5.22;;;4.28;;
54235;SDS011;40151;43.606;1.472;2023-08-24T08:12:33;5.25;;;4.03;;
54235;SDS011;40151;43.606;1.472;2023-08-24T08:14:59;6.68;;;4.20;;
54235;SDS011;40151;43.606;1.472;2023-08-24T08:17:25;7.40;;;4.50;;
54235;SDS011;40151;43.606;1.472;2023-08-24T08:19:56;5.93;;;4.30;;
54235;SDS011;40151;43.606;1.472;2023-08-24T08:22:21;5.22;;;4.38;;
54235;SDS011;40151;43.606;1.472;2023-08-24T08:24:47;6.32;;;4.50;;
54235;SDS011;40151;43.606;1.472;2023-08-24T08:27:12;5.47;;;4.15;;
54235;SDS011;40151;43.606;1.472;2023-08-24T08:29:38;5.18;;;4.57;;
54235;SDS011;40151;43.606;1.472;2023-08-24T08:32:04;6.93;;;4.47;;
54235;SDS011;40151;43.606;1.472;2023-08-24T08:34:30;6.07;;;4.57;;
54235;SDS011;40151;43.606;1.472;2023-08-24T08:36:56;4.65;;;3.70;;
54235;SDS011;40151;43.606;1.472;2023-08-24T08:39:22;6.07;;;3.90;;
54235;SDS011;40151;43.606;1.472;2023-08-24T08:41:48;5.93;;;4.60;;
54235;SDS011;40151;43.606;1.472;2023-08-24T08:44:14;6.47;;;4.55;;
54235;SDS011;40151;43.606;1.472;2023-08-24T08:46:41;5.53;;;4.40;;
54235;SDS011;40151;43.606;1.472;2023-08-24T08:49:07;5.50;;;4.40;;
54235;SDS011;40151;43.606;1.472;2023-08-24T08:51:37;5.18;;;4.13;;
54235;SDS011;40151;43.606;1.472;2023-08-24T08:54:03;5.05;;;4.10;;
54235;SDS011;40151;43.606;1.472;2023-08-24T08:56:30;7.13;;;4.68;;
54235;SDS011;40151;43.606;1.472;2023-08-24T08:58:57;5.35;;;4.30;;
54235;SDS011;40151;43.606;1.472;2023-08-24T09:01:24;5.18;;;4.20;;
54235;SDS011;40151;43.606;1.472;2023-08-24T09:03:50;6.10;;;4.15;;
54235;SDS011;40151;43.606;1.472;2023-08-24T09:06:16;4.95;;;4.10;;
54235;SDS011;40151;43.606;1.472;2023-08-24T09:08:42;6.05;;;4.00;;
54235;SDS011;40151;43.606;1.472;2023-08-24T09:11:09;6.60;;;4.38;;
54235;SDS011;40151;43.606;1.472;2023-08-24T09:13:35;5.55;;;4.30;;
54235;SDS011;40151;43.606;1.472;2023-08-24T09:16:04;5.78;;;3.83;;
54235;SDS011;40151;43.606;1.472;2023-08-24T09:18:37;6.32;;;4.03;;
54235;SDS011;40151;43.606;1.472;2023-08-24T09:21:09;7.85;;;4.78;;
54235;SDS011;40151;43.606;1.472;2023-08-24T09:23:37;6.30;;;4.10;;
54235;SDS011;40151;43.606;1.472;2023-08-24T09:26:03;6.75;;;4.20;;
54235;SDS011;40151;43.606;1.472;2023-08-24T09:28:30;5.18;;;4.25;;
54235;SDS011;40151;43.606;1.472;2023-08-24T09:30:55;4.93;;;4.25;;
54235;SDS011;40151;43.606;1.472;2023-08-24T09:33:26;5.88;;;4.20;;
54235;SDS011;40151;43.606;1.472;2023-08-24T09:35:52;7.22;;;4.20;;
54235;SDS011;40151;43.606;1.472;2023-08-24T09:38:20;5.72;;;4.28;;
54235;SDS011;40151;43.606;1.472;2023-08-24T09:40:47;5.38;;;3.83;;
54235;SDS011;40151;43.606;1.472;2023-08-24T09:43:16;5.53;;;4.38;;
54235;SDS011;40151;43.606;1.472;2023-08-24T09:45:51;5.57;;;4.40;;
54235;SDS011;40151;43.606;1.472;2023-08-24T09:48:18;6.85;;;4.30;;
54235;SDS011;40151;43.606;1.472;2023-08-24T09:50:47;5.82;;;4.25;;
54235;SDS011;40151;43.606;1.472;2023-08-24T09:53:21;6.15;;;4.45;;
54235;SDS011;40151;43.606;1.472;2023-08-24T09:55:54;7.20;;;4.15;;
54235;SDS011;40151;43.606;1.472;2023-08-24T09:58:23;5.40;;;4.22;;
54235;SDS011;40151;43.606;1.472;2023-08-24T10:00:49;4.88;;;3.90;;
54235;SDS011;40151;43.606;1.472;2023-08-24T10:03:16;5.43;;;3.90;;
54235;SDS011;40151;43.606;1.472;2023-08-24T10:05:47;5.97;;;4.05;;
54235;SDS011;40151;43.606;1.472;2023-08-24T10:08:22;5.88;;;4.00;;
54235;SDS011;40151;43.606;1.472;2023-08-24T10:10:52;5.78;;;4.57;;
54235;SDS011;40151;43.606;1.472;2023-08-24T10:13:31;4.93;;;3.58;;
54235;SDS011;40151;43.606;1.472;2023-08-24T10:16:11;5.07;;;3.97;;
54235;SDS011;40151;43.606;1.472;2023-08-24T10:18:38;4.85;;;3.70;;
54235;SDS011;40151;43.606;1.472;2023-08-24T10:21:05;4.30;;;3.75;;
54235;SDS011;40151;43.606;1.472;2023-08-24T10:23:32;5.38;;;4.32;;
54235;SDS011;40151;43.606;1.472;2023-08-24T10:26:02;4.95;;;4.07;;
54235;SDS011;40151;43.606;1.472;2023-08-24T10:28:29;5.07;;;3.65;;
54235;SDS011;40151;43.606;1.472;2023-08-24T10:30:54;5.75;;;3.97;;
54235;SDS011;40151;43.606;1.472;2023-08-24T10:33:23;5.20;;;4.00;;
54235;SDS011;40151;43.606;1.472;2023-08-24T10:35:49;5.45;;;4.05;;
54235;SDS011;40151;43.606;1.472;2023-08-24T10:38:48;6.20;;;3.92;;
54235;SDS011;40151;43.606;1.472;2023-08-24T10:41:10;6.25;;;4.13;;
54235;SDS011;40151;43.606;1.472;2023-08-24T10:43:39;4.82;;;3.90;;
54235;SDS011;40151;43.606;1.472;2023-08-24T10:46:12;6.15;;;4.10;;
54235;SDS011;40151;43.606;1.472;2023-08-24T10:53:44;4.80;;;3.72;;
54235;SDS011;40151;43.606;1.472;2023-08-24T10:56:15;5.53;;;3.60;;
54235;SDS011;40151;43.606;1.472;2023-08-24T10:58:41;5.93;;;3.65;;
54235;SDS011;40151;43.606;1.472;2023-08-24T11:01:18;4.47;;;3.63;;
54235;SDS011;40151;43.606;1.472;2023-08-24T11:03:50;5.00;;;3.90;;
54235;SDS011;40151;43.606;1.472;2023-08-24T11:06:19;5.00;;;3.72;;
54235;SDS011;40151;43.606;1.472;2023-08-24T11:08:49;4.10;;;3.28;;
54235;SDS011;40151;43.606;1.472;2023-08-24T11:11:31;5.20;;;3.70;;
54235;SDS011;40151;43.606;1.472;2023-08-24T11:16:47;4.70;;;3.47;;
54235;SDS011;40151;43.606;1.472;2023-08-24T11:19:13;4.93;;;3.88;;
54235;SDS011;40151;43.606;1.472;2023-08-24T11:21:40;4.78;;;3.80;;
54235;SDS011;40151;43.606;1.472;2023-08-24T11:24:06;4.90;;;3.63;;
54235;SDS011;40151;43.606;1.472;2023-08-24T11:26:33;4.13;;;3.28;;
54235;SDS011;40151;43.606;1.472;2023-08-24T11:28:59;5.10;;;3.72;;
54235;SDS011;40151;43.606;1.472;2023-08-24T11:31:24;4.43;;;3.58;;
54235;SDS011;40151;43.606;1.472;2023-08-24T11:33:53;4.47;;;3.53;;
54235;SDS011;40151;43.606;1.472;2023-08-24T11:36:23;4.85;;;3.90;;
54235;SDS011;40151;43.606;1.472;2023-08-24T11:38:49;4.65;;;3.83;;
54235;SDS011;40151;43.606;1.472;2023-08-24T11:41:17;4.57;;;3.67;;
54235;SDS011;40151;43.606;1.472;2023-08-24T11:43:43;5.32;;;3.70;;
54235;SDS011;40151;43.606;1.472;2023-08-24T11:46:09;4.70;;;3.67;;
54235;SDS011;40151;43.606;1.472;2023-08-24T11:48:35;5.63;;;3.90;;
54235;SDS011;40151;43.606;1.472;2023-08-24T11:51:02;4.35;;;3.40;;
54235;SDS011;40151;43.606;1.472;2023-08-24T11:53:28;5.88;;;3.72;;
54235;SDS011;40151;43.606;1.472;2023-08-24T11:55:54;5.00;;;3.70;;
54235;SDS011;40151;43.606;1.472;2023-08-24T11:58:19;4.95;;;3.70;;
54235;SDS011;40151;43.606;1.472;2023-08-24T12:00:45;5.25;;;3.85;;
54235;SDS011;40151;43.606;1.472;2023-08-24T12:03:12;4.95;;;4.05;;
54235;SDS011;40151;43.606;1.472;2023-08-24T12:05:38;5.18;;;3.40;;
54235;SDS011;40151;43.606;1.472;2023-08-24T12:08:05;5.05;;;3.40;;
54235;SDS011;40151;43.606;1.472;2023-08-24T12:10:31;5.88;;;3.95;;
54235;SDS011;40151;43.606;1.472;2023-08-24T12:13:00;5.10;;;4.00;;
54235;SDS011;40151;43.606;1.472;2023-08-24T12:15:28;4.93;;;3.55;;
54235;SDS011;40151;43.606;1.472;2023-08-24T12:17:54;4.47;;;3.30;;
54235;SDS011;40151;43.606;1.472;2023-08-24T12:20:20;5.15;;;3.60;;
54235;SDS011;40151;43.606;1.472;2023-08-24T12:22:56;5.10;;;3.50;;
54235;SDS011;40151;43.606;1.472;2023-08-24T12:25:21;5.40;;;3.67;;
54235;SDS011;40151;43.606;1.472;2023-08-24T12:27:48;5.43;;;3.80;;
54235;SDS011;40151;43.606;1.472;2023-08-24T12:30:14;4.22;;;3.20;;
54235;SDS011;40151;43.606;1.472;2023-08-24T12:32:43;5.30;;;3.42;;
54235;SDS011;40151;43.606;1.472;2023-08-24T12:35:10;4.95;;;3.42;;
54235;SDS011;40151;43.606;1.472;2023-08-24T12:37:36;5.30;;;3.85;;
54235;SDS011;40151;43.606;1.472;2023-08-24T12:40:02;5.38;;;3.92;;
54235;SDS011;40151;43.606;1.472;2023-08-24T12:42:30;5.65;;;3.72;;
54235;SDS011;40151;43.606;1.472;2023-08-24T12:44:56;5.05;;;3.70;;
54235;SDS011;40151;43.606;1.472;2023-08-24T12:47:21;4.75;;;3.55;;
54235;SDS011;40151;43.606;1.472;2023-08-24T12:49:47;4.70;;;3.78;;
54235;SDS011;40151;43.606;1.472;2023-08-24T12:52:13;4.65;;;3.55;;
54235;SDS011;40151;43.606;1.472;2023-08-24T12:54:39;5.55;;;3.95;;
54235;SDS011;40151;43.606;1.472;2023-08-24T12:57:04;5.30;;;3.80;;
54235;SDS011;40151;43.606;1.472;2023-08-24T12:59:29;4.50;;;3.70;;
54235;SDS011;40151;43.606;1.472;2023-08-24T13:01:55;5.63;;;3.55;;
54235;SDS011;40151;43.606;1.472;2023-08-24T13:04:20;3.97;;;3.33;;
54235;SDS011;40151;43.606;1.472;2023-08-24T13:06:46;5.88;;;3.75;;
54235;SDS011;40151;43.606;1.472;2023-08-24T13:09:11;4.50;;;3.20;;
54235;SDS011;40151;43.606;1.472;2023-08-24T13:11:38;6.07;;;3.75;;
54235;SDS011;40151;43.606;1.472;2023-08-24T13:14:04;5.07;;;3.83;;
54235;SDS011;40151;43.606;1.472;2023-08-24T13:16:29;4.70;;;3.58;;
54235;SDS011;40151;43.606;1.472;2023-08-24T13:18:55;5.07;;;3.47;;
54235;SDS011;40151;43.606;1.472;2023-08-24T13:21:20;7.32;;;3.85;;
54235;SDS011;40151;43.606;1.472;2023-08-24T13:23:46;4.00;;;3.30;;
54235;SDS011;40151;43.606;1.472;2023-08-24T13:26:18;5.75;;;3.90;;
54235;SDS011;40151;43.606;1.472;2023-08-24T13:28:48;4.32;;;3.42;;
54235;SDS011;40151;43.606;1.472;2023-08-24T13:31:14;5.35;;;3.83;;
54235;SDS011;40151;43.606;1.472;2023-08-24T13:33:39;3.92;;;3.45;;
54235;SDS011;40151;43.606;1.472;2023-08-24T13:36:05;4.70;;;3.63;;
54235;SDS011;40151;43.606;1.472;2023-08-24T13:38:30;4.60;;;3.35;;
54235;SDS011;40151;43.606;1.472;2023-08-24T13:40:56;4.82;;;3.30;;
54235;SDS011;40151;43.606;1.472;2023-08-24T13:43:21;6.07;;;3.95;;
54235;SDS011;40151;43.606;1.472;2023-08-24T13:45:47;4.15;;;3.40;;
54235;SDS011;40151;43.606;1.472;2023-08-24T13:48:13;4.80;;;3.78;;
54235;SDS011;40151;43.606;1.472;2023-08-24T13:50:40;5.50;;;3.72;;
54235;SDS011;40151;43.606;1.472;2023-08-24T13:53:06;4.82;;;3.45;;
54235;SDS011;40151;43.606;1.472;2023-08-24T13:55:31;5.28;;;3.40;;
54235;SDS011;40151;43.606;1.472;2023-08-24T13:57:57;4.93;;;3.75;;
54235;SDS011;40151;43.606;1.472;2023-08-24T14:00:22;6.20;;;3.90;;
54235;SDS011;40151;43.606;1.472;2023-08-24T14:02:48;4.47;;;3.20;;
54235;SDS011;40151;43.606;1.472;2023-08-24T14:05:14;4.20;;;3.35;;
54235;SDS011;40151;43.606;1.472;2023-08-24T14:07:40;5.68;;;3.85;;
54235;SDS011;40151;43.606;1.472;2023-08-24T14:10:06;4.95;;;3.80;;
54235;SDS011;40151;43.606;1.472;2023-08-24T14:12:32;4.40;;;3.50;;
54235;SDS011;40151;43.606;1.472;2023-08-24T14:14:58;5.10;;;3.60;;
54235;SDS011;40151;43.606;1.472;2023-08-24T14:17:24;4.70;;;3.50;;
54235;SDS011;40151;43.606;1.472;2023-08-24T14:19:49;4.95;;;3.78;;
54235;SDS011;40151;43.606;1.472;2023-08-24T14:22:14;4.97;;;3.72;;
54235;SDS011;40151;43.606;1.472;2023-08-24T14:24:40;4.20;;;3.20;;
54235;SDS011;40151;43.606;1.472;2023-08-24T14:27:05;5.10;;;3.53;;
54235;SDS011;40151;43.606;1.472;2023-08-24T14:29:31;6.53;;;3.78;;
54235;SDS011;40151;43.606;1.472;2023-08-24T14:31:56;4.97;;;3.85;;
54235;SDS011;40151;43.606;1.472;2023-08-24T14:34:21;4.60;;;3.30;;
54235;SDS011;40151;43.606;1.472;2023-08-24T14:36:47;5.40;;;3.90;;
54235;SDS011;40151;43.606;1.472;2023-08-24T14:39:12;3.95;;;3.22;;
54235;SDS011;40151;43.606;1.472;2023-08-24T14:41:38;4.50;;;3.35;;
54235;SDS011;40151;43.606;1.472;2023-08-24T14:44:04;4.25;;;3.33;;
54235;SDS011;40151;43.606;1.472;2023-08-24T14:46:29;4.90;;;3.53;;
54235;SDS011;40151;43.606;1.472;2023-08-24T14:48:55;4.97;;;3.60;;
54235;SDS011;40151;43.606;1.472;2023-08-24T14:51:20;4.35;;;3.22;;
54235;SDS011;40151;43.606;1.472;2023-08-24T14:53:45;5.50;;;3.60;;
54235;SDS011;40151;43.606;1.472;2023-08-24T14:56:11;4.57;;;3.40;;
54235;SDS011;40151;43.606;1.472;2023-08-24T14:58:36;4.43;;;3.25;;